createdAt,value
2022-08-05T00:00:19.656Z,66.25
2022-08-05T00:06:01.699Z,67.20
2022-08-05T00:08:06.718Z,67.30
2022-08-05T00:10:52.947Z,67.16
2022-08-05T00:13:19.852Z,68.21
2022-08-05T00:15:55.069Z,68.88
2022-08-05T00:18:24.663Z,69.17
2022-08-05T00:20:51.677Z,69.46
2022-08-05T00:23:44.627Z,69.73
2022-08-05T00:26:07.164Z,69.95
2022-08-05T00:28:34.788Z,70.81
2022-08-05T00:31:04.482Z,69.94
2022-08-05T00:34:53.694Z,71.04
2022-08-05T00:37:13.221Z,70.86
2022-08-05T00:39:13.559Z,71.68
2022-08-05T00:41:51.966Z,71.00
2022-08-05T00:44:23.248Z,71.02
2022-08-05T00:47:03.943Z,71.48
2022-08-05T00:49:50.979Z,72.10
2022-08-05T00:52:28.196Z,73.24
2022-08-05T00:54:56.149Z,74.29
2022-08-05T00:57:25.268Z,75.19
2022-08-05T00:59:58.566Z,75.96
2022-08-05T01:02:25.292Z,76.31
2022-08-05T01:04:51.940Z,76.81
2022-08-05T01:07:18.620Z,77.72
2022-08-05T01:09:45.519Z,77.87
2022-08-05T01:12:23.934Z,78.46
2022-08-05T01:15:05.316Z,78.14
2022-08-05T01:17:47.211Z,78.59
2022-08-05T01:20:37.216Z,79.11
2022-08-05T01:23:24.927Z,78.20
2022-08-05T01:26:04.632Z,77.61
2022-08-05T01:28:44.135Z,77.81
2022-08-05T01:31:22.428Z,78.40
2022-08-05T01:33:55.609Z,77.87
2022-08-05T01:36:28.100Z,78.23
2022-08-05T01:38:56.173Z,77.85
2022-08-05T01:41:25.506Z,77.31
2022-08-05T01:43:53.823Z,77.88
2022-08-05T01:46:42.624Z,78.58
2022-08-05T01:49:24.314Z,76.86
2022-08-05T01:51:53.904Z,77.43
2022-08-05T01:54:25.624Z,78.38
2022-08-05T01:58:14.790Z,77.83
2022-08-05T01:59:47.339Z,77.91
2022-08-05T02:02:15.993Z,78.56
2022-08-05T02:04:46.323Z,79.36
2022-08-05T02:07:22.025Z,79.72
2022-08-05T02:09:51.266Z,79.65
2022-08-05T02:12:20.764Z,79.80
2022-08-05T02:15:03.185Z,80.20
2022-08-05T02:18:32.101Z,79.37
2022-08-05T02:20:26.716Z,80.33
2022-08-05T02:22:59.671Z,80.17
2022-08-05T02:25:33.011Z,80.60
2022-08-05T02:28:02.496Z,80.59
2022-08-05T02:30:54.146Z,80.75
2022-08-05T02:33:24.561Z,80.04
2022-08-05T02:36:04.637Z,80.88
2022-08-05T02:38:35.428Z,81.76
2022-08-05T02:41:14.508Z,82.33
2022-08-05T02:44:02.263Z,82.83
2022-08-05T02:46:34.469Z,82.97
2022-08-05T02:49:01.876Z,83.08
2022-08-05T02:52:02.984Z,82.87
2022-08-05T02:54:34.822Z,83.54
2022-08-05T02:57:10.299Z,82.57
2022-08-05T02:59:55.590Z,82.39
2022-08-05T03:02:29.662Z,82.36
2022-08-05T03:04:58.125Z,81.27
2022-08-05T03:07:59.391Z,81.79
2022-08-05T03:10:24.426Z,81.19
2022-08-05T03:12:53.081Z,81.81
2022-08-05T03:15:21.106Z,81.32
2022-08-05T03:17:50.584Z,81.03
2022-08-05T03:20:20.973Z,80.26
2022-08-05T03:22:50.002Z,80.55
2022-08-05T03:25:32.462Z,79.53
2022-08-05T03:28:08.620Z,79.93
2022-08-05T03:30:38.223Z,80.36
2022-08-05T03:33:07.345Z,80.44
2022-08-05T03:35:40.794Z,80.00
2022-08-05T03:38:10.991Z,79.91
2022-08-05T03:40:45.410Z,79.45
2022-08-05T03:44:08.667Z,79.12
2022-08-05T03:46:04.472Z,79.17
2022-08-05T03:48:35.567Z,79.32
2022-08-05T03:52:36.465Z,77.80
2022-08-05T03:55:00.536Z,78.87
2022-08-05T03:57:29.580Z,79.44
2022-08-05T04:00:15.512Z,78.90
2022-08-05T04:02:58.737Z,78.82
2022-08-05T04:05:35.636Z,79.24
2022-08-05T04:08:30.119Z,78.34
2022-08-05T04:10:53.186Z,79.63
2022-08-05T04:13:21.658Z,79.36
2022-08-05T04:16:02.849Z,80.21
2022-08-05T04:18:32.236Z,79.12
2022-08-05T04:21:01.816Z,79.11
2022-08-05T04:24:01.709Z,78.15
2022-08-05T04:26:20.934Z,78.21
2022-08-05T04:28:51.813Z,77.84
2022-08-05T04:31:19.842Z,77.30
2022-08-05T04:34:17.376Z,75.83
2022-08-05T04:36:46.272Z,74.57
2022-08-05T04:39:18.240Z,79.49
2022-08-05T04:41:45.712Z,75.55
2022-08-05T04:44:12.856Z,77.32
2022-08-05T04:46:39.547Z,74.76
2022-08-05T04:49:14.548Z,75.01
2022-08-05T04:51:42.662Z,73.65
2022-08-05T04:54:10.196Z,72.73
2022-08-05T04:56:38.990Z,72.70
2022-08-05T04:59:22.118Z,70.49
2022-08-05T05:02:08.118Z,69.40
2022-08-05T05:04:38.746Z,69.80
2022-08-05T05:07:15.877Z,69.99
2022-08-05T05:09:43.788Z,69.91
2022-08-05T05:12:11.521Z,69.81
2022-08-05T05:14:38.490Z,69.49
2022-08-05T05:17:22.891Z,69.86
2022-08-05T05:19:53.497Z,69.28
2022-08-05T05:22:24.015Z,68.76
2022-08-05T05:24:58.453Z,66.66
2022-08-05T05:27:41.498Z,66.33
2022-08-05T05:30:15.331Z,67.07
2022-08-05T05:32:42.622Z,67.26
2022-08-05T05:35:12.840Z,67.27
2022-08-05T05:38:00.088Z,67.72
2022-08-05T05:40:29.311Z,68.41
2022-08-05T05:42:57.202Z,69.00
2022-08-05T05:45:24.700Z,69.89
2022-08-05T05:48:06.292Z,69.88
2022-08-05T05:50:43.997Z,69.69
2022-08-05T05:53:21.977Z,70.32
2022-08-05T05:55:51.727Z,71.07
2022-08-05T05:58:30.359Z,72.27
2022-08-05T06:01:12.426Z,72.41
2022-08-05T06:04:00.400Z,73.32
2022-08-05T06:06:31.298Z,72.83
2022-08-05T06:09:00.189Z,73.11
2022-08-05T06:11:28.801Z,73.97
2022-08-05T06:13:56.057Z,74.15
2022-08-05T06:16:30.386Z,73.62
2022-08-05T06:19:01.207Z,74.97
2022-08-05T06:21:36.719Z,76.03
2022-08-05T06:24:04.829Z,75.65
2022-08-05T06:26:33.964Z,75.34
2022-08-05T06:29:03.482Z,75.24
2022-08-05T06:31:33.755Z,73.13
2022-08-05T06:34:07.137Z,71.59
2022-08-05T06:36:56.668Z,70.92
2022-08-05T06:39:22.578Z,69.17
2022-08-05T06:41:53.804Z,68.35
2022-08-05T06:44:22.035Z,69.89
2022-08-05T06:46:50.895Z,69.78
2022-08-05T06:49:18.978Z,69.69
2022-08-05T06:51:48.467Z,68.88
2022-08-05T06:54:18.901Z,68.73
2022-08-05T06:56:55.003Z,67.97
2022-08-05T06:59:38.761Z,68.36
2022-08-05T07:02:09.070Z,67.53
2022-08-05T07:04:36.424Z,67.55
2022-08-05T07:07:07.943Z,67.09
2022-08-05T07:09:37.373Z,67.12
2022-08-05T07:12:08.061Z,67.94
2022-08-05T07:14:53.951Z,68.67
2022-08-05T07:17:59.723Z,69.27
2022-08-05T07:20:32.562Z,70.61
2022-08-05T07:22:55.060Z,70.70
2022-08-05T07:25:55.017Z,72.10
2022-08-05T07:28:11.679Z,72.70
2022-08-05T07:30:39.862Z,72.54
2022-08-05T07:33:10.649Z,71.87
2022-08-05T07:36:01.555Z,73.00
2022-08-05T07:38:34.237Z,72.65
2022-08-05T07:42:08.441Z,73.19
2022-08-05T07:43:58.471Z,73.69
2022-08-05T07:46:30.804Z,71.97
2022-08-05T07:49:05.575Z,72.55
2022-08-05T07:51:37.517Z,72.92
2022-08-05T07:54:09.681Z,73.52
2022-08-05T07:57:00.033Z,73.40
2022-08-05T07:59:38.839Z,73.86
2022-08-05T08:02:15.830Z,75.41
2022-08-05T08:04:45.317Z,76.47
2022-08-05T08:07:13.031Z,76.18
2022-08-05T08:09:39.807Z,77.09
2022-08-05T08:12:14.598Z,76.13
2022-08-05T08:14:53.982Z,78.51
2022-08-05T08:17:21.705Z,76.31
2022-08-05T08:20:42.795Z,76.73
2022-08-05T08:22:36.071Z,74.83
2022-08-05T08:25:03.953Z,75.73
2022-08-05T08:27:47.482Z,76.89
2022-08-05T08:30:29.953Z,75.51
2022-08-05T08:33:08.551Z,75.88
2022-08-05T08:35:41.353Z,77.75
2022-08-05T08:38:11.681Z,77.71
2022-08-05T08:40:47.794Z,76.91
2022-08-05T08:44:54.655Z,77.64
2022-08-05T08:46:06.704Z,78.43
2022-08-05T08:49:03.002Z,80.06
2022-08-05T08:52:03.854Z,77.82
2022-08-05T08:54:18.224Z,79.31
2022-08-05T08:56:47.755Z,80.04
2022-08-05T08:59:20.833Z,79.93
2022-08-05T09:01:57.232Z,79.16
2022-08-05T09:04:30.507Z,79.70
2022-08-05T09:06:58.731Z,80.12
2022-08-05T09:09:34.764Z,78.23
2022-08-05T09:12:20.122Z,76.45
2022-08-05T09:14:58.822Z,75.86
2022-08-05T09:17:40.599Z,76.30
2022-08-05T09:20:11.462Z,72.24
2022-08-05T09:23:07.555Z,71.35
2022-08-05T09:26:00.971Z,69.66
2022-08-05T09:28:32.257Z,68.77
2022-08-05T09:31:43.269Z,68.84
2022-08-05T09:33:59.741Z,68.07
2022-08-05T09:36:45.753Z,68.39
2022-08-05T09:39:41.917Z,68.80
2022-08-05T09:42:13.575Z,69.03
2022-08-05T09:44:56.828Z,70.04
2022-08-05T09:47:36.322Z,70.44
2022-08-05T09:50:18.043Z,70.86
2022-08-05T09:53:00.548Z,76.77
2022-08-05T09:55:56.370Z,77.82
2022-08-05T09:58:15.586Z,78.81
2022-08-05T10:01:15.107Z,80.87
2022-08-05T10:04:10.079Z,81.41
2022-08-05T10:06:40.588Z,80.58
2022-08-05T10:09:28.414Z,83.10
2022-08-05T10:12:18.549Z,81.82
2022-08-05T10:15:20.326Z,77.03
2022-08-05T10:18:04.965Z,79.75
2022-08-05T10:20:36.218Z,81.37
2022-08-05T10:23:04.135Z,78.34
2022-08-05T10:25:36.209Z,78.72
2022-08-05T10:28:13.878Z,81.37
2022-08-05T10:32:50.604Z,86.24
2022-08-05T10:33:35.261Z,91.68
2022-08-05T10:36:04.585Z,93.37
2022-08-05T10:38:33.798Z,93.94
2022-08-05T10:41:45.282Z,93.07
2022-08-05T10:44:18.369Z,92.05
2022-08-05T10:46:51.017Z,86.94
2022-08-05T10:49:27.399Z,88.74
2022-08-05T10:52:03.256Z,86.48
2022-08-05T10:55:02.554Z,89.91
2022-08-05T10:57:32.003Z,88.26
2022-08-05T11:00:24.503Z,86.98
2022-08-05T11:03:25.915Z,87.56
2022-08-05T11:06:05.006Z,81.31
2022-08-05T11:08:37.943Z,82.07
2022-08-05T11:11:44.720Z,75.06
2022-08-05T11:17:57.499Z,66.57
2022-08-05T11:20:41.822Z,67.05
2022-08-05T11:23:25.663Z,63.83
2022-08-05T11:26:10.386Z,64.77
2022-08-05T11:28:39.415Z,65.08
2022-08-05T11:31:06.931Z,64.39
2022-08-05T11:33:46.193Z,61.48
2022-08-05T11:36:15.397Z,62.47
2022-08-05T11:39:00.785Z,58.17
2022-08-05T11:41:54.827Z,57.55
2022-08-05T11:44:40.442Z,57.06
2022-08-05T11:47:11.227Z,57.24
2022-08-05T11:49:43.353Z,55.84
2022-08-05T11:52:24.448Z,58.01
2022-08-05T11:54:58.250Z,56.59
2022-08-05T11:58:08.085Z,55.03
2022-08-05T12:00:31.817Z,53.71
2022-08-05T12:03:14.922Z,53.92
2022-08-05T12:05:43.514Z,54.53
2022-08-05T12:08:11.751Z,53.98
2022-08-05T12:10:48.801Z,52.98
2022-08-05T12:13:27.987Z,50.92
2022-08-05T12:16:14.870Z,51.35
2022-08-05T12:18:52.377Z,49.56
2022-08-05T12:21:23.698Z,49.97
2022-08-05T12:24:04.537Z,48.63
2022-08-05T12:26:47.324Z,49.06
2022-08-05T12:29:22.883Z,49.92
2022-08-05T12:31:55.434Z,49.83
2022-08-05T12:34:30.512Z,50.37
2022-08-05T12:37:01.422Z,50.35
2022-08-05T12:39:34.672Z,50.64
2022-08-05T12:42:16.138Z,48.95
2022-08-05T12:44:46.023Z,48.76
2022-08-05T12:47:26.362Z,47.92
2022-08-05T12:50:04.221Z,48.64
2022-08-05T12:52:41.832Z,50.72
2022-08-05T12:55:23.304Z,52.16
2022-08-05T12:58:50.974Z,52.88
2022-08-05T13:02:01.312Z,53.78
2022-08-05T13:03:32.023Z,51.86
2022-08-05T13:06:00.924Z,52.06
2022-08-05T13:08:30.089Z,52.30
2022-08-05T13:11:04.387Z,53.29
2022-08-05T13:14:06.516Z,53.80
2022-08-05T13:16:19.981Z,53.36
2022-08-05T13:18:54.959Z,52.38
2022-08-05T13:21:26.246Z,51.94
2022-08-05T13:23:55.664Z,50.00
2022-08-05T13:26:30.209Z,50.12
2022-08-05T13:28:57.402Z,49.57
2022-08-05T13:31:33.938Z,49.22
2022-08-05T13:34:23.299Z,49.09
2022-08-05T13:36:53.430Z,49.26
2022-08-05T13:39:24.581Z,50.16
2022-08-05T13:42:07.704Z,52.25
2022-08-05T13:44:45.014Z,52.65
2022-08-05T13:47:35.134Z,53.82
2022-08-05T13:50:08.138Z,53.63
2022-08-05T13:52:38.041Z,54.40
2022-08-05T13:55:07.824Z,53.46
2022-08-05T13:57:48.509Z,53.64
2022-08-05T14:00:18.617Z,53.14
2022-08-05T14:02:54.116Z,51.13
2022-08-05T14:05:48.437Z,51.15
2022-08-05T14:08:20.000Z,51.54
2022-08-05T14:10:48.412Z,51.60
2022-08-05T14:13:15.461Z,51.20
2022-08-05T14:16:05.536Z,51.48
2022-08-05T14:18:29.081Z,51.63
2022-08-05T14:20:55.771Z,50.33
2022-08-05T14:23:25.480Z,51.02
2022-08-05T14:25:58.833Z,52.02
2022-08-05T14:28:30.159Z,51.77
2022-08-05T14:30:58.795Z,52.54
2022-08-05T14:33:25.975Z,52.71
2022-08-05T14:35:54.498Z,52.52
2022-08-05T14:38:32.979Z,53.21
2022-08-05T14:41:06.275Z,55.15
2022-08-05T14:43:57.541Z,56.11
2022-08-05T14:46:29.626Z,56.68
2022-08-05T14:48:59.568Z,57.91
2022-08-05T14:51:30.799Z,57.99
2022-08-05T14:54:26.045Z,58.59
2022-08-05T14:56:46.868Z,58.66
2022-08-05T14:59:14.361Z,60.33
2022-08-05T15:01:47.879Z,60.73
2022-08-05T15:04:15.250Z,61.24
2022-08-05T15:06:42.020Z,61.46
2022-08-05T15:09:16.304Z,63.15
2022-08-05T15:12:03.995Z,63.91
2022-08-05T15:14:35.861Z,63.64
2022-08-05T15:17:09.923Z,64.43
2022-08-05T15:19:58.242Z,64.77
2022-08-05T15:22:27.052Z,65.41
2022-08-05T15:24:54.977Z,66.19
2022-08-05T15:27:21.639Z,66.58
2022-08-05T15:29:52.207Z,68.32
2022-08-05T15:32:21.113Z,67.37
2022-08-05T15:34:55.584Z,68.06
2022-08-05T15:38:08.559Z,69.79
2022-08-05T15:41:02.131Z,70.53
2022-08-05T15:43:09.078Z,70.59
2022-08-05T15:45:45.645Z,70.56
2022-08-05T15:48:14.093Z,70.48
2022-08-05T15:50:43.559Z,70.83
2022-08-05T15:53:12.734Z,72.33
2022-08-05T15:56:02.529Z,72.45
2022-08-05T15:58:28.608Z,71.79
2022-08-05T16:01:11.549Z,71.69
2022-08-05T16:03:43.341Z,72.62
2022-08-05T16:06:11.323Z,71.14
2022-08-05T16:08:38.630Z,70.76
2022-08-05T16:11:07.348Z,70.96
2022-08-05T16:13:35.273Z,71.02
2022-08-05T16:16:05.241Z,69.67
2022-08-05T16:18:33.133Z,70.31
2022-08-05T16:21:04.556Z,69.85
2022-08-05T16:23:53.114Z,69.96
2022-08-05T16:26:19.154Z,70.28
2022-08-05T16:28:53.040Z,71.46
2022-08-05T16:31:21.338Z,73.17
2022-08-05T16:33:48.222Z,74.38
2022-08-05T16:36:14.880Z,74.86
2022-08-05T16:38:54.893Z,76.33
2022-08-05T16:42:14.008Z,77.30
2022-08-05T16:44:11.569Z,77.80
2022-08-05T16:46:41.157Z,78.08
2022-08-05T16:49:09.249Z,78.28
2022-08-05T16:51:42.890Z,77.37
2022-08-05T16:54:25.745Z,76.92
2022-08-05T16:56:55.468Z,76.93
2022-08-05T16:59:24.235Z,77.07
2022-08-05T17:01:56.258Z,77.79
2022-08-05T17:04:27.977Z,77.77
2022-08-05T17:07:00.015Z,77.53
2022-08-05T17:09:29.423Z,78.87
2022-08-05T17:11:59.422Z,79.18
2022-08-05T17:14:36.707Z,79.93
2022-08-05T17:17:05.950Z,81.43
2022-08-05T17:19:32.601Z,81.73
2022-08-05T17:22:00.989Z,81.54
2022-08-05T17:24:38.656Z,81.31
2022-08-05T17:27:09.088Z,81.22
2022-08-05T17:29:40.983Z,80.71
2022-08-05T17:32:16.775Z,80.93
2022-08-05T17:34:47.655Z,80.40
2022-08-05T17:37:39.417Z,81.67
2022-08-05T17:40:10.336Z,78.14
2022-08-05T17:42:43.006Z,78.30
2022-08-05T17:45:20.421Z,78.12
2022-08-05T17:47:53.489Z,77.64
2022-08-05T17:50:28.032Z,75.93
2022-08-05T17:52:55.912Z,75.81
2022-08-05T17:55:34.418Z,76.12
2022-08-05T17:58:05.763Z,76.97
2022-08-05T18:00:34.566Z,78.00
2022-08-05T18:03:02.342Z,78.53
2022-08-05T18:05:35.400Z,78.32
2022-08-05T18:08:02.810Z,78.96
2022-08-05T18:10:32.249Z,78.63
2022-08-05T18:13:00.551Z,78.23
2022-08-05T18:15:31.114Z,78.74
2022-08-05T18:18:05.766Z,78.82
2022-08-05T18:20:37.981Z,79.41
2022-08-05T18:23:09.230Z,80.19
2022-08-05T18:25:39.080Z,81.20
2022-08-05T18:28:09.442Z,80.41
2022-08-05T18:30:39.085Z,80.55
2022-08-05T18:33:07.467Z,79.12
2022-08-05T18:36:01.294Z,78.78
2022-08-05T18:38:26.010Z,77.77
2022-08-05T18:41:55.077Z,75.58
2022-08-05T18:43:43.087Z,73.96
2022-08-05T18:46:19.822Z,73.12
2022-08-05T18:48:52.324Z,73.49
2022-08-05T18:52:05.559Z,72.60
2022-08-05T18:54:26.146Z,73.00
2022-08-05T18:56:55.012Z,72.24
2022-08-05T18:59:43.994Z,71.81
2022-08-05T19:02:26.736Z,71.67
2022-08-05T19:05:02.042Z,72.94
2022-08-05T19:07:45.084Z,71.65
2022-08-05T19:10:12.300Z,71.71
2022-08-05T19:12:39.062Z,71.36
2022-08-05T19:15:06.257Z,70.92
2022-08-05T19:17:59.394Z,70.23
2022-08-05T19:20:37.118Z,70.24
2022-08-05T19:23:08.568Z,70.59
2022-08-05T19:26:02.163Z,69.71
2022-08-05T19:28:31.189Z,69.94
2022-08-05T19:31:01.105Z,69.37
2022-08-05T19:33:36.348Z,68.64
2022-08-05T19:36:07.000Z,68.49
2022-08-05T19:38:35.595Z,68.44
2022-08-05T19:41:07.296Z,69.02
2022-08-05T19:44:05.777Z,68.57
2022-08-05T19:46:30.659Z,68.81
2022-08-05T19:49:03.637Z,69.81
2022-08-05T19:51:56.562Z,69.59
2022-08-05T19:54:26.955Z,70.32
2022-08-05T19:56:59.439Z,70.91
2022-08-05T19:59:55.915Z,70.47
2022-08-05T20:02:14.729Z,70.77
2022-08-05T20:04:42.808Z,70.76
2022-08-05T20:07:13.034Z,70.68
2022-08-05T20:09:54.528Z,71.14
2022-08-05T20:12:24.417Z,71.28
2022-08-05T20:14:52.842Z,72.08
2022-08-05T20:17:23.659Z,71.88
2022-08-05T20:19:56.787Z,71.09
2022-08-05T20:22:27.081Z,71.45
2022-08-05T20:24:55.839Z,71.93
2022-08-05T20:27:26.880Z,71.17
2022-08-05T20:29:58.370Z,72.43
2022-08-05T20:32:26.578Z,72.06
2022-08-05T20:34:53.672Z,73.18
2022-08-05T20:38:04.789Z,74.38
2022-08-05T20:40:08.051Z,74.36
2022-08-05T20:42:35.495Z,73.95
2022-08-05T20:45:02.948Z,74.76
2022-08-05T20:47:32.209Z,74.58
2022-08-05T20:49:59.744Z,75.42
2022-08-05T20:52:29.685Z,75.08
2022-08-05T20:55:55.247Z,76.49
2022-08-05T20:57:44.646Z,76.30
2022-08-05T21:00:41.502Z,76.35
2022-08-05T21:03:06.041Z,77.44
2022-08-05T21:05:47.842Z,77.53
2022-08-05T21:08:21.239Z,77.46
2022-08-05T21:10:54.954Z,77.24
2022-08-05T21:13:37.859Z,77.29
2022-08-05T21:16:12.250Z,77.78
2022-08-05T21:18:38.883Z,78.45
2022-08-05T21:21:09.716Z,78.66
2022-08-05T21:23:37.435Z,78.35
2022-08-05T21:26:12.445Z,79.13
2022-08-05T21:28:48.039Z,80.23
2022-08-05T21:31:17.342Z,79.75
2022-08-05T21:33:47.866Z,80.04
2022-08-05T21:36:19.235Z,81.17
2022-08-05T21:38:56.922Z,81.36
2022-08-05T21:41:26.037Z,81.25
2022-08-05T21:44:04.043Z,81.39
2022-08-05T21:46:34.271Z,82.01
2022-08-05T21:49:02.005Z,82.65
2022-08-05T21:52:21.548Z,82.98
2022-08-05T21:54:15.422Z,83.04
2022-08-05T21:56:44.624Z,82.96
2022-08-05T21:59:22.483Z,83.91
2022-08-05T22:01:51.829Z,85.08
2022-08-05T22:04:21.494Z,83.70
2022-08-05T22:06:52.534Z,84.58
2022-08-05T22:09:20.767Z,85.69
2022-08-05T22:11:48.495Z,85.44
2022-08-05T22:14:35.140Z,85.26
2022-08-05T22:17:06.801Z,85.98
2022-08-05T22:20:00.103Z,85.74
2022-08-05T22:22:28.084Z,85.82
2022-08-05T22:25:18.193Z,87.00
2022-08-05T22:28:09.494Z,86.57
2022-08-05T22:30:43.989Z,85.46
2022-08-05T22:33:15.599Z,85.86
2022-08-05T22:35:48.483Z,85.43
2022-08-05T22:38:16.557Z,85.05
2022-08-05T22:40:49.956Z,84.10
2022-08-05T22:43:37.138Z,81.92
2022-08-05T22:46:13.670Z,78.79
2022-08-05T22:48:50.914Z,77.35
2022-08-05T22:51:23.230Z,76.84
2022-08-05T22:54:04.690Z,76.92
2022-08-05T22:56:31.652Z,75.73
2022-08-05T22:59:03.194Z,75.19
2022-08-05T23:02:04.178Z,74.97
2022-08-05T23:04:32.062Z,74.46
2022-08-05T23:06:58.887Z,73.96
2022-08-05T23:09:27.534Z,73.57
2022-08-05T23:12:12.394Z,74.22
2022-08-05T23:14:39.115Z,73.23
2022-08-05T23:17:34.284Z,73.08
2022-08-05T23:20:10.466Z,73.39
2022-08-05T23:22:44.026Z,73.76
2022-08-05T23:25:17.008Z,73.52
2022-08-05T23:27:57.716Z,73.61
2022-08-05T23:30:28.992Z,74.16
2022-08-05T23:32:55.908Z,74.44
2022-08-05T23:35:24.400Z,74.78
2022-08-05T23:37:55.464Z,74.01
2022-08-05T23:40:27.136Z,74.29
2022-08-05T23:42:54.151Z,74.28
2022-08-05T23:45:20.985Z,74.19
2022-08-05T23:47:53.822Z,74.78
2022-08-05T23:50:26.553Z,73.70
2022-08-05T23:52:55.361Z,73.55
2022-08-05T23:55:22.659Z,72.98
2022-08-05T23:57:57.653Z,73.73
